createdAt,value
2019-06-25T00:01:47.579Z,19.50
2019-06-25T00:05:56.379Z,19.50
2019-06-25T00:10:05.589Z,19.50
2019-06-25T00:14:14.387Z,19.40
2019-06-25T00:18:23.345Z,19.40
2019-06-25T00:22:32.303Z,19.30
2019-06-25T00:26:41.374Z,19.20
2019-06-25T00:30:50.227Z,19.10
2019-06-25T00:34:59.038Z,19.00
2019-06-25T00:39:07.972Z,19.00
2019-06-25T00:43:16.779Z,19.00
2019-06-25T00:47:25.586Z,18.90
2019-06-25T00:51:34.375Z,18.80
2019-06-25T00:55:43.318Z,18.70
2019-06-25T00:59:52.123Z,18.70
2019-06-25T01:04:01.064Z,18.60
2019-06-25T01:08:10.006Z,18.60
2019-06-25T01:12:18.905Z,18.60
2019-06-25T01:16:27.785Z,18.60
2019-06-25T01:20:36.642Z,18.50
2019-06-25T01:24:45.448Z,18.40
2019-06-25T01:28:54.306Z,18.30
2019-06-25T01:33:03.184Z,18.30
2019-06-25T01:37:11.982Z,18.20
2019-06-25T01:41:20.772Z,18.20
2019-06-25T01:45:29.655Z,18.20
2019-06-25T01:49:38.469Z,18.10
2019-06-25T01:53:47.326Z,18.10
2019-06-25T01:57:56.154Z,18.10
2019-06-25T02:02:05.253Z,18.00
2019-06-25T02:06:14.031Z,18.00
2019-06-25T02:10:23.166Z,17.90
2019-06-25T02:14:32.068Z,17.90
2019-06-25T02:18:40.860Z,17.90
2019-06-25T02:22:49.953Z,17.80
2019-06-25T02:26:58.746Z,17.80
2019-06-25T02:31:08.963Z,17.80
2019-06-25T02:35:18.326Z,17.80
2019-06-25T02:39:27.390Z,17.70
2019-06-25T02:43:36.573Z,17.70
2019-06-25T02:47:45.476Z,17.70
2019-06-25T02:51:54.319Z,17.70
2019-06-25T02:56:03.366Z,17.60
2019-06-25T03:00:13.571Z,17.60
2019-06-25T03:04:22.408Z,17.50
2019-06-25T03:08:31.415Z,17.40
2019-06-25T03:12:40.290Z,17.40
2019-06-25T03:16:49.312Z,17.40
2019-06-25T03:20:58.418Z,17.40
2019-06-25T03:25:07.463Z,17.40
2019-06-25T03:29:16.664Z,17.50
2019-06-25T03:33:25.552Z,17.50
2019-06-25T03:37:34.375Z,17.50
2019-06-25T03:41:43.238Z,17.60
2019-06-25T03:45:52.070Z,17.70
2019-06-25T03:50:00.995Z,17.80
2019-06-25T03:54:10.058Z,17.90
2019-06-25T03:58:19.083Z,17.90
2019-06-25T04:02:28.000Z,18.00
2019-06-25T04:06:36.869Z,18.20
2019-06-25T04:10:45.822Z,18.70
2019-06-25T04:14:54.591Z,19.30
2019-06-25T04:19:03.408Z,19.50
2019-06-25T04:23:12.322Z,19.70
2019-06-25T04:27:21.235Z,19.80
2019-06-25T04:31:30.039Z,19.70
2019-06-25T04:35:38.868Z,19.80
2019-06-25T04:39:47.656Z,20.00
2019-06-25T04:43:56.466Z,20.40
2019-06-25T04:48:05.394Z,20.50
2019-06-25T04:52:14.166Z,20.80
2019-06-25T04:56:23.214Z,21.30
2019-06-25T05:00:32.007Z,21.90
2019-06-25T05:04:40.778Z,22.40
2019-06-25T05:08:49.575Z,22.90
2019-06-25T05:12:58.658Z,23.40
2019-06-25T05:17:07.436Z,23.70
2019-06-25T05:21:16.302Z,24.10
2019-06-25T05:25:25.435Z,23.90
2019-06-25T05:29:34.345Z,23.60
2019-06-25T05:33:43.320Z,23.50
2019-06-25T05:37:52.332Z,23.50
2019-06-25T05:42:02.272Z,23.60
2019-06-25T05:46:11.240Z,23.60
2019-06-25T05:50:20.191Z,23.60
2019-06-25T05:54:29.077Z,23.60
2019-06-25T05:58:37.999Z,23.60
2019-06-25T06:02:46.934Z,23.60
2019-06-25T06:06:55.827Z,23.60
2019-06-25T06:11:04.903Z,23.80
2019-06-25T06:15:14.697Z,24.10
2019-06-25T06:19:23.731Z,24.40
2019-06-25T06:23:33.393Z,24.70
2019-06-25T06:27:42.275Z,25.10
2019-06-25T06:31:51.183Z,25.50
2019-06-25T06:36:00.188Z,25.90
2019-06-25T06:40:09.576Z,26.00
2019-06-25T06:44:18.518Z,26.20
2019-06-25T06:48:27.476Z,26.50
2019-06-25T06:52:36.319Z,26.70
2019-06-25T06:56:45.370Z,26.80
2019-06-25T07:00:54.202Z,27.00
2019-06-25T07:05:03.234Z,27.20
2019-06-25T07:09:12.039Z,27.20
2019-06-25T07:13:20.906Z,27.20
2019-06-25T07:17:30.550Z,27.20
2019-06-25T07:21:39.466Z,27.20
2019-06-25T07:25:48.347Z,27.30
2019-06-25T07:29:57.499Z,27.50
2019-06-25T07:34:09.868Z,27.70
2019-06-25T07:38:17.447Z,28.00
2019-06-25T07:42:26.400Z,28.40
2019-06-25T07:46:35.423Z,28.70
2019-06-25T07:50:44.371Z,28.90
2019-06-25T07:54:53.489Z,29.10
2019-06-25T07:59:02.226Z,29.20
2019-06-25T08:03:11.116Z,29.30
2019-06-25T08:07:20.035Z,29.40
2019-06-25T08:11:28.823Z,29.30
2019-06-25T08:15:37.651Z,29.00
2019-06-25T08:19:46.478Z,28.90
2019-06-25T08:23:55.258Z,29.10
2019-06-25T08:28:04.195Z,29.40
2019-06-25T08:32:13.032Z,29.80
2019-06-25T08:36:22.160Z,30.10
2019-06-25T08:40:31.418Z,30.40
2019-06-25T08:44:40.290Z,30.70
2019-06-25T08:48:49.215Z,31.20
2019-06-25T08:52:59.077Z,31.80
2019-06-25T08:57:08.035Z,32.00
2019-06-25T09:01:16.955Z,32.30
2019-06-25T09:05:25.818Z,32.70
2019-06-25T09:09:34.994Z,32.70
2019-06-25T09:13:43.936Z,32.90
2019-06-25T09:17:52.850Z,32.80
2019-06-25T09:22:01.781Z,32.90
2019-06-25T09:26:10.697Z,32.90
2019-06-25T09:30:19.889Z,33.00
2019-06-25T09:34:28.751Z,33.30
2019-06-25T09:38:37.644Z,33.40
2019-06-25T09:42:46.477Z,33.30
2019-06-25T09:46:57.630Z,33.50
2019-06-25T09:51:06.802Z,33.60
2019-06-25T09:55:15.715Z,33.60
2019-06-25T09:59:24.639Z,33.80
2019-06-25T10:03:33.490Z,33.90
2019-06-25T10:07:42.248Z,33.90
2019-06-25T10:11:51.339Z,34.00
2019-06-25T10:16:00.172Z,33.90
2019-06-25T10:20:09.794Z,34.10
2019-06-25T10:24:18.939Z,34.20
2019-06-25T10:28:31.852Z,34.30
2019-06-25T10:32:38.320Z,34.60
2019-06-25T10:36:47.174Z,35.00
2019-06-25T10:40:56.016Z,35.20
2019-06-25T10:45:05.346Z,35.30
2019-06-25T10:49:14.139Z,35.30
2019-06-25T10:53:22.998Z,35.70
2019-06-25T10:57:31.788Z,35.90
2019-06-25T11:01:40.764Z,36.00
2019-06-25T11:06:03.379Z,36.00
2019-06-25T11:10:00.345Z,35.90
2019-06-25T11:14:09.371Z,35.90
2019-06-25T11:18:18.356Z,36.20
2019-06-25T11:22:27.153Z,36.40
2019-06-25T11:26:36.131Z,36.20
2019-06-25T11:30:44.950Z,36.40
2019-06-25T11:34:55.727Z,36.60
2019-06-25T11:39:08.021Z,36.90
2019-06-25T11:43:16.874Z,36.70
2019-06-25T11:47:25.670Z,36.70
2019-06-25T11:51:36.348Z,36.70
2019-06-25T11:55:45.155Z,36.70
2019-06-25T11:59:54.445Z,36.50
2019-06-25T12:04:03.233Z,36.50
2019-06-25T12:08:12.002Z,36.40
2019-06-25T12:12:21.353Z,36.60
2019-06-25T12:16:30.186Z,36.90
2019-06-25T12:20:38.958Z,36.80
2019-06-25T12:24:47.745Z,36.80
2019-06-25T12:28:56.534Z,36.80
2019-06-25T12:33:05.542Z,36.80
2019-06-25T12:37:14.335Z,37.10
2019-06-25T12:41:23.114Z,37.10
2019-06-25T12:45:33.126Z,37.30
2019-06-25T12:49:42.344Z,37.20
2019-06-25T12:53:51.131Z,37.00
2019-06-25T12:57:59.904Z,36.80
2019-06-25T13:02:08.970Z,36.70
2019-06-25T13:06:17.854Z,36.80
2019-06-25T13:10:40.030Z,37.30
2019-06-25T13:14:37.744Z,37.80
2019-06-25T13:18:46.571Z,37.80
2019-06-25T13:22:55.347Z,37.60
2019-06-25T13:27:04.202Z,37.40
2019-06-25T13:31:13.057Z,37.80
2019-06-25T13:35:21.839Z,37.50
2019-06-25T13:39:30.653Z,37.20
2019-06-25T13:43:39.474Z,37.70
2019-06-25T13:47:48.250Z,38.60
2019-06-25T13:51:57.023Z,38.90
2019-06-25T13:56:05.991Z,38.50
2019-06-25T14:00:15.342Z,38.20
2019-06-25T14:04:24.122Z,37.90
2019-06-25T14:08:32.916Z,38.20
2019-06-25T14:12:41.678Z,38.30
2019-06-25T14:16:50.523Z,38.80
2019-06-25T14:20:59.416Z,39.10
2019-06-25T14:25:08.749Z,39.20
2019-06-25T14:29:17.606Z,38.80
2019-06-25T14:33:26.402Z,38.70
2019-06-25T14:37:35.334Z,38.60
2019-06-25T14:41:44.861Z,37.90
2019-06-25T14:45:53.643Z,37.40
2019-06-25T14:50:02.531Z,37.40
2019-06-25T14:54:11.306Z,37.30
2019-06-25T14:58:20.124Z,37.00
2019-06-25T15:02:28.994Z,37.10
2019-06-25T15:06:37.830Z,37.30
2019-06-25T15:10:47.455Z,37.40
2019-06-25T15:14:56.264Z,37.30
2019-06-25T15:19:05.490Z,37.50
2019-06-25T15:23:16.593Z,37.90
2019-06-25T15:27:24.940Z,37.90
2019-06-25T15:31:34.209Z,37.40
2019-06-25T15:35:42.999Z,37.20
2019-06-25T15:39:51.774Z,37.60
2019-06-25T15:44:00.561Z,37.90
2019-06-25T15:48:09.423Z,37.80
2019-06-25T15:52:18.211Z,37.60
2019-06-25T15:56:27.078Z,37.40
2019-06-25T16:00:35.969Z,37.40
2019-06-25T16:04:44.743Z,37.20
2019-06-25T16:09:02.708Z,37.30
2019-06-25T16:13:04.125Z,37.30
2019-06-25T16:17:13.068Z,37.40
2019-06-25T16:21:21.948Z,37.30
2019-06-25T16:25:30.750Z,37.40
2019-06-25T16:29:39.527Z,37.40
2019-06-25T16:33:48.588Z,37.20
2019-06-25T16:37:57.430Z,37.10
2019-06-25T16:42:06.357Z,37.10
2019-06-25T16:46:15.153Z,37.10
2019-06-25T16:50:24.079Z,37.10
2019-06-25T16:54:32.857Z,37.10
2019-06-25T16:58:41.794Z,37.20
2019-06-25T17:02:54.570Z,37.30
2019-06-25T17:07:01.303Z,37.30
2019-06-25T17:11:10.221Z,37.90
2019-06-25T17:15:19.399Z,38.50
2019-06-25T17:19:28.535Z,39.60
2019-06-25T17:23:37.417Z,40.70
2019-06-25T17:27:50.496Z,41.60
2019-06-25T17:31:56.851Z,41.90
2019-06-25T17:36:06.424Z,41.80
2019-06-25T17:40:15.882Z,41.70
2019-06-25T17:44:25.059Z,42.20
2019-06-25T17:48:33.852Z,42.50
2019-06-25T17:52:42.743Z,42.60
2019-06-25T17:56:51.582Z,43.20
2019-06-25T18:01:00.442Z,43.30
2019-06-25T18:05:09.530Z,42.90
2019-06-25T18:09:18.662Z,42.70
2019-06-25T18:13:27.618Z,42.60
2019-06-25T18:17:36.471Z,42.50
2019-06-25T18:21:45.515Z,41.50
2019-06-25T18:25:54.370Z,40.60
2019-06-25T18:30:03.297Z,40.00
2019-06-25T18:34:12.122Z,40.10
2019-06-25T18:38:20.923Z,40.20
2019-06-25T18:42:29.793Z,39.40
2019-06-25T18:46:38.624Z,37.60
2019-06-25T18:50:47.414Z,36.10
2019-06-25T18:54:56.271Z,35.00
2019-06-25T18:59:05.488Z,34.10
2019-06-25T19:03:14.280Z,33.40
2019-06-25T19:07:23.058Z,32.80
2019-06-25T19:11:31.909Z,32.40
2019-06-25T19:15:40.958Z,31.90
2019-06-25T19:19:49.739Z,31.50
2019-06-25T19:23:58.526Z,31.00
2019-06-25T19:28:07.524Z,30.70
2019-06-25T19:32:16.310Z,30.40
2019-06-25T19:36:25.113Z,30.10
2019-06-25T19:40:33.898Z,29.80
2019-06-25T19:44:42.802Z,29.50
2019-06-25T19:48:51.722Z,29.30
2019-06-25T19:53:00.542Z,29.00
2019-06-25T19:57:09.680Z,28.60
2019-06-25T20:01:18.655Z,28.40
2019-06-25T20:05:27.579Z,28.10
2019-06-25T20:09:36.818Z,27.80
2019-06-25T20:13:45.596Z,27.50
2019-06-25T20:17:54.436Z,27.20
2019-06-25T20:22:03.581Z,27.00
2019-06-25T20:26:12.423Z,26.80
2019-06-25T20:30:21.622Z,26.60
2019-06-25T20:34:30.403Z,26.40
2019-06-25T20:38:39.278Z,26.30
2019-06-25T20:42:48.441Z,26.10
2019-06-25T20:46:57.244Z,26.00
2019-06-25T20:51:06.127Z,26.00
2019-06-25T20:55:15.003Z,25.90
2019-06-25T20:59:23.796Z,25.90
2019-06-25T21:03:32.682Z,25.80
2019-06-25T21:07:41.458Z,25.70
2019-06-25T21:11:50.330Z,25.60
2019-06-25T21:15:59.139Z,25.50
2019-06-25T21:20:08.107Z,25.30
2019-06-25T21:24:16.963Z,25.20
2019-06-25T21:28:25.744Z,25.10
2019-06-25T21:32:34.554Z,25.00
2019-06-25T21:36:43.343Z,24.90
2019-06-25T21:40:52.126Z,24.80
2019-06-25T21:45:00.925Z,24.70
2019-06-25T21:49:09.971Z,24.60
2019-06-25T21:53:18.836Z,24.50
2019-06-25T21:57:27.614Z,24.40
2019-06-25T22:01:38.317Z,24.30
2019-06-25T22:05:47.178Z,24.10
2019-06-25T22:09:56.124Z,24.00
2019-06-25T22:14:05.060Z,24.00
2019-06-25T22:18:13.854Z,23.80
2019-06-25T22:22:22.643Z,23.70
2019-06-25T22:26:31.507Z,23.60
2019-06-25T22:30:40.484Z,23.50
2019-06-25T22:34:49.291Z,23.50
2019-06-25T22:38:58.379Z,23.40
2019-06-25T22:43:07.250Z,23.40
2019-06-25T22:47:16.134Z,23.30
2019-06-25T22:51:25.152Z,23.30
2019-06-25T22:55:33.960Z,23.20
2019-06-25T22:59:42.771Z,23.10
2019-06-25T23:03:51.566Z,22.90
2019-06-25T23:08:00.368Z,22.80
2019-06-25T23:12:09.295Z,22.70
2019-06-25T23:16:18.082Z,22.60
2019-06-25T23:20:27.023Z,22.50
2019-06-25T23:24:35.912Z,22.40
2019-06-25T23:28:44.707Z,22.30
2019-06-25T23:32:54.142Z,22.20
2019-06-25T23:37:03.023Z,22.20
2019-06-25T23:41:12.056Z,22.10
2019-06-25T23:45:20.943Z,22.00
2019-06-25T23:49:29.731Z,21.90
2019-06-25T23:53:38.618Z,21.90
2019-06-25T23:57:47.468Z,21.80
